sensor_id;sensor_type;location;lat;lon;timestamp;temperature;humidity
13049;DHT22;6591;51.446;5.404;2022-10-16T00:01:39;14.10;99.90
13049;DHT22;6591;51.446;5.404;2022-10-16T00:04:06;14.10;99.90
13049;DHT22;6591;51.446;5.404;2022-10-16T00:06:33;14.10;99.90
13049;DHT22;6591;51.446;5.404;2022-10-16T00:09:00;14.10;99.90
13049;DHT22;6591;51.446;5.404;2022-10-16T00:11:29;14.10;99.90
13049;DHT22;6591;51.446;5.404;2022-10-16T00:14:06;14.10;99.90
13049;DHT22;6591;51.446;5.404;2022-10-16T00:16:35;14.10;99.90
13049;DHT22;6591;51.446;5.404;2022-10-16T00:19:03;14.00;99.90
13049;DHT22;6591;51.446;5.404;2022-10-16T00:21:32;14.00;99.90
13049;DHT22;6591;51.446;5.404;2022-10-16T00:24:06;14.00;99.90
13049;DHT22;6591;51.446;5.404;2022-10-16T00:26:38;14.00;99.90
13049;DHT22;6591;51.446;5.404;2022-10-16T00:29:05;15.60;99.90
13049;DHT22;6591;51.446;5.404;2022-10-16T00:31:33;14.00;99.90
13049;DHT22;6591;51.446;5.404;2022-10-16T00:34:00;14.00;99.90
13049;DHT22;6591;51.446;5.404;2022-10-16T00:36:28;14.80;99.90
13049;DHT22;6591;51.446;5.404;2022-10-16T00:38:56;13.70;99.90
13049;DHT22;6591;51.446;5.404;2022-10-16T00:41:26;13.80;99.90
13049;DHT22;6591;51.446;5.404;2022-10-16T00:43:56;14.50;99.90
13049;DHT22;6591;51.446;5.404;2022-10-16T00:46:41;13.60;99.90
13049;DHT22;6591;51.446;5.404;2022-10-16T00:49:10;15.50;99.90
13049;DHT22;6591;51.446;5.404;2022-10-16T00:51:51;13.70;99.90
13049;DHT22;6591;51.446;5.404;2022-10-16T00:54:25;15.70;99.90
13049;DHT22;6591;51.446;5.404;2022-10-16T00:56:58;13.60;99.90
13049;DHT22;6591;51.446;5.404;2022-10-16T00:59:37;15.00;99.90
13049;DHT22;6591;51.446;5.404;2022-10-16T01:02:10;13.50;99.90
13049;DHT22;6591;51.446;5.404;2022-10-16T01:04:42;13.50;99.90
13049;DHT22;6591;51.446;5.404;2022-10-16T01:07:32;13.40;99.90
13049;DHT22;6591;51.446;5.404;2022-10-16T01:10:54;13.40;99.90
13049;DHT22;6591;51.446;5.404;2022-10-16T01:15:47;13.30;99.90
13049;DHT22;6591;51.446;5.404;2022-10-16T01:18:32;13.30;99.90
13049;DHT22;6591;51.446;5.404;2022-10-16T01:21:33;13.20;99.90
13049;DHT22;6591;51.446;5.404;2022-10-16T01:24:06;13.20;99.90
13049;DHT22;6591;51.446;5.404;2022-10-16T01:29:44;13.10;99.90
13049;DHT22;6591;51.446;5.404;2022-10-16T01:32:38;14.20;99.90
13049;DHT22;6591;51.446;5.404;2022-10-16T01:35:25;13.20;99.90
13049;DHT22;6591;51.446;5.404;2022-10-16T01:38:17;13.20;99.90
13049;DHT22;6591;51.446;5.404;2022-10-16T01:40:52;13.20;99.90
13049;DHT22;6591;51.446;5.404;2022-10-16T01:43:38;14.20;99.90
13049;DHT22;6591;51.446;5.404;2022-10-16T01:46:13;14.40;99.90
13049;DHT22;6591;51.446;5.404;2022-10-16T01:48:43;15.50;99.90
13049;DHT22;6591;51.446;5.404;2022-10-16T01:51:13;14.20;99.90
13049;DHT22;6591;51.446;5.404;2022-10-16T01:53:46;15.10;99.90
13049;DHT22;6591;51.446;5.404;2022-10-16T01:56:18;13.70;99.90
13049;DHT22;6591;51.446;5.404;2022-10-16T01:58:53;15.10;99.90
13049;DHT22;6591;51.446;5.404;2022-10-16T02:01:26;13.50;99.90
13049;DHT22;6591;51.446;5.404;2022-10-16T02:04:01;14.30;99.90
13049;DHT22;6591;51.446;5.404;2022-10-16T02:06:34;15.50;99.90
13049;DHT22;6591;51.446;5.404;2022-10-16T02:09:02;13.60;99.90
13049;DHT22;6591;51.446;5.404;2022-10-16T02:11:29;15.50;99.90
13049;DHT22;6591;51.446;5.404;2022-10-16T02:14:03;13.60;99.90
13049;DHT22;6591;51.446;5.404;2022-10-16T02:16:38;13.60;99.90
13049;DHT22;6591;51.446;5.404;2022-10-16T02:19:12;15.60;99.90
13049;DHT22;6591;51.446;5.404;2022-10-16T02:21:49;15.10;99.90
13049;DHT22;6591;51.446;5.404;2022-10-16T02:24:39;13.40;99.90
13049;DHT22;6591;51.446;5.404;2022-10-16T02:32:47;13.60;99.90
13049;DHT22;6591;51.446;5.404;2022-10-16T02:35:17;13.60;99.90
13049;DHT22;6591;51.446;5.404;2022-10-16T02:37:47;15.40;99.90
13049;DHT22;6591;51.446;5.404;2022-10-16T02:40:17;13.60;99.90
13049;DHT22;6591;51.446;5.404;2022-10-16T02:42:52;13.60;99.90
13049;DHT22;6591;51.446;5.404;2022-10-16T02:45:22;14.20;99.90
13049;DHT22;6591;51.446;5.404;2022-10-16T02:47:50;13.10;99.90
13049;DHT22;6591;51.446;5.404;2022-10-16T02:50:17;13.60;99.90
13049;DHT22;6591;51.446;5.404;2022-10-16T02:52:44;13.50;99.90
13049;DHT22;6591;51.446;5.404;2022-10-16T02:55:11;15.70;99.90
13049;DHT22;6591;51.446;5.404;2022-10-16T02:57:38;15.40;99.90
13049;DHT22;6591;51.446;5.404;2022-10-16T03:00:12;13.50;99.90
13049;DHT22;6591;51.446;5.404;2022-10-16T03:02:41;13.50;99.90
13049;DHT22;6591;51.446;5.404;2022-10-16T03:05:09;13.50;99.90
13049;DHT22;6591;51.446;5.404;2022-10-16T03:07:36;13.40;99.90
13049;DHT22;6591;51.446;5.404;2022-10-16T03:10:04;15.20;99.90
13049;DHT22;6591;51.446;5.404;2022-10-16T03:12:32;13.40;99.90
13049;DHT22;6591;51.446;5.404;2022-10-16T03:14:59;15.10;99.90
13049;DHT22;6591;51.446;5.404;2022-10-16T03:17:27;13.40;99.90
13049;DHT22;6591;51.446;5.404;2022-10-16T03:19:54;13.40;99.90
13049;DHT22;6591;51.446;5.404;2022-10-16T03:22:21;13.40;99.90
13049;DHT22;6591;51.446;5.404;2022-10-16T03:24:48;13.40;99.90
13049;DHT22;6591;51.446;5.404;2022-10-16T03:27:15;13.40;99.90
13049;DHT22;6591;51.446;5.404;2022-10-16T03:29:42;13.40;99.90
13049;DHT22;6591;51.446;5.404;2022-10-16T03:32:09;13.40;99.90
13049;DHT22;6591;51.446;5.404;2022-10-16T03:34:36;15.60;99.90
13049;DHT22;6591;51.446;5.404;2022-10-16T03:37:03;15.50;99.90
13049;DHT22;6591;51.446;5.404;2022-10-16T03:39:30;13.40;99.90
13049;DHT22;6591;51.446;5.404;2022-10-16T03:41:57;13.60;99.90
13049;DHT22;6591;51.446;5.404;2022-10-16T03:44:24;13.40;99.90
13049;DHT22;6591;51.446;5.404;2022-10-16T03:46:51;13.50;99.90
13049;DHT22;6591;51.446;5.404;2022-10-16T03:49:18;13.50;99.90
13049;DHT22;6591;51.446;5.404;2022-10-16T03:51:45;15.20;99.90
13049;DHT22;6591;51.446;5.404;2022-10-16T03:54:12;15.10;99.90
13049;DHT22;6591;51.446;5.404;2022-10-16T03:56:39;14.60;99.90
13049;DHT22;6591;51.446;5.404;2022-10-16T03:59:06;13.50;99.90
13049;DHT22;6591;51.446;5.404;2022-10-16T04:01:33;13.50;99.90
13049;DHT22;6591;51.446;5.404;2022-10-16T04:04:00;13.60;99.90
13049;DHT22;6591;51.446;5.404;2022-10-16T04:06:27;14.90;99.90
13049;DHT22;6591;51.446;5.404;2022-10-16T04:08:54;15.00;99.90
13049;DHT22;6591;51.446;5.404;2022-10-16T04:11:20;14.50;99.90
13049;DHT22;6591;51.446;5.404;2022-10-16T04:13:48;13.70;99.90
13049;DHT22;6591;51.446;5.404;2022-10-16T04:16:15;13.60;99.90
13049;DHT22;6591;51.446;5.404;2022-10-16T04:18:42;13.70;99.90
13049;DHT22;6591;51.446;5.404;2022-10-16T04:21:09;14.60;99.90
13049;DHT22;6591;51.446;5.404;2022-10-16T04:23:35;14.90;99.90
13049;DHT22;6591;51.446;5.404;2022-10-16T04:26:02;14.90;99.90
13049;DHT22;6591;51.446;5.404;2022-10-16T04:28:29;15.60;99.90
13049;DHT22;6591;51.446;5.404;2022-10-16T04:30:57;13.80;99.90
13049;DHT22;6591;51.446;5.404;2022-10-16T04:33:24;13.80;99.90
13049;DHT22;6591;51.446;5.404;2022-10-16T04:36:02;13.80;99.90
13049;DHT22;6591;51.446;5.404;2022-10-16T04:38:30;13.80;99.90
13049;DHT22;6591;51.446;5.404;2022-10-16T04:40:58;15.90;99.90
13049;DHT22;6591;51.446;5.404;2022-10-16T04:43:26;16.20;99.90
13049;DHT22;6591;51.446;5.404;2022-10-16T04:45:53;13.30;99.90
13049;DHT22;6591;51.446;5.404;2022-10-16T04:48:21;13.90;99.90
13049;DHT22;6591;51.446;5.404;2022-10-16T04:50:48;13.90;99.90
13049;DHT22;6591;51.446;5.404;2022-10-16T04:53:20;13.90;99.90
13049;DHT22;6591;51.446;5.404;2022-10-16T04:55:48;15.40;99.90
13049;DHT22;6591;51.446;5.404;2022-10-16T04:58:15;14.00;99.90
13049;DHT22;6591;51.446;5.404;2022-10-16T05:00:41;13.90;99.90
13049;DHT22;6591;51.446;5.404;2022-10-16T05:03:09;13.90;99.90
13049;DHT22;6591;51.446;5.404;2022-10-16T05:05:36;16.10;99.90
13049;DHT22;6591;51.446;5.404;2022-10-16T05:08:04;15.50;99.90
13049;DHT22;6591;51.446;5.404;2022-10-16T05:10:31;14.70;99.90
13049;DHT22;6591;51.446;5.404;2022-10-16T05:12:58;13.90;99.90
13049;DHT22;6591;51.446;5.404;2022-10-16T05:15:25;13.80;99.90
13049;DHT22;6591;51.446;5.404;2022-10-16T05:17:53;13.80;99.90
13049;DHT22;6591;51.446;5.404;2022-10-16T05:20:22;15.60;99.90
13049;DHT22;6591;51.446;5.404;2022-10-16T05:22:49;14.40;99.90
13049;DHT22;6591;51.446;5.404;2022-10-16T05:25:16;15.20;99.90
13049;DHT22;6591;51.446;5.404;2022-10-16T05:27:47;13.90;99.90
13049;DHT22;6591;51.446;5.404;2022-10-16T05:30:16;13.80;99.90
13049;DHT22;6591;51.446;5.404;2022-10-16T05:32:48;13.90;99.90
13049;DHT22;6591;51.446;5.404;2022-10-16T05:35:18;13.80;99.90
13049;DHT22;6591;51.446;5.404;2022-10-16T05:37:45;13.80;99.90
13049;DHT22;6591;51.446;5.404;2022-10-16T05:40:13;14.30;99.90
13049;DHT22;6591;51.446;5.404;2022-10-16T05:42:40;13.80;99.90
13049;DHT22;6591;51.446;5.404;2022-10-16T05:45:09;16.30;99.90
13049;DHT22;6591;51.446;5.404;2022-10-16T05:47:38;13.70;99.90
13049;DHT22;6591;51.446;5.404;2022-10-16T05:50:07;15.10;99.90
13049;DHT22;6591;51.446;5.404;2022-10-16T05:52:34;13.70;99.90
13049;DHT22;6591;51.446;5.404;2022-10-16T05:55:01;13.70;99.90
13049;DHT22;6591;51.446;5.404;2022-10-16T05:57:28;13.70;99.90
13049;DHT22;6591;51.446;5.404;2022-10-16T05:59:56;15.00;99.90
13049;DHT22;6591;51.446;5.404;2022-10-16T06:02:23;14.70;99.90
13049;DHT22;6591;51.446;5.404;2022-10-16T06:04:51;14.30;99.90
13049;DHT22;6591;51.446;5.404;2022-10-16T06:07:20;13.70;99.90
13049;DHT22;6591;51.446;5.404;2022-10-16T06:09:49;13.70;99.90
13049;DHT22;6591;51.446;5.404;2022-10-16T06:12:16;13.70;99.90
13049;DHT22;6591;51.446;5.404;2022-10-16T06:14:45;15.00;99.90
13049;DHT22;6591;51.446;5.404;2022-10-16T06:17:14;14.00;99.90
13049;DHT22;6591;51.446;5.404;2022-10-16T06:19:41;13.70;99.90
13049;DHT22;6591;51.446;5.404;2022-10-16T06:22:08;15.80;99.90
13049;DHT22;6591;51.446;5.404;2022-10-16T06:24:35;13.70;99.90
13049;DHT22;6591;51.446;5.404;2022-10-16T06:27:03;13.70;99.90
13049;DHT22;6591;51.446;5.404;2022-10-16T06:29:31;15.00;99.90
13049;DHT22;6591;51.446;5.404;2022-10-16T06:31:58;13.70;99.90
13049;DHT22;6591;51.446;5.404;2022-10-16T06:34:25;13.70;99.90
13049;DHT22;6591;51.446;5.404;2022-10-16T06:36:52;13.70;99.90
13049;DHT22;6591;51.446;5.404;2022-10-16T06:39:19;13.70;99.90
13049;DHT22;6591;51.446;5.404;2022-10-16T06:41:46;13.70;99.90
13049;DHT22;6591;51.446;5.404;2022-10-16T06:44:16;15.10;99.90
13049;DHT22;6591;51.446;5.404;2022-10-16T06:46:43;15.80;99.90
13049;DHT22;6591;51.446;5.404;2022-10-16T06:49:10;13.70;99.90
13049;DHT22;6591;51.446;5.404;2022-10-16T06:51:37;15.40;99.90
13049;DHT22;6591;51.446;5.404;2022-10-16T06:54:09;15.50;99.90
13049;DHT22;6591;51.446;5.404;2022-10-16T06:56:36;13.80;99.90
13049;DHT22;6591;51.446;5.404;2022-10-16T06:59:03;13.80;99.90
13049;DHT22;6591;51.446;5.404;2022-10-16T07:01:32;13.80;99.90
13049;DHT22;6591;51.446;5.404;2022-10-16T07:04:00;13.80;99.90
13049;DHT22;6591;51.446;5.404;2022-10-16T07:06:31;13.90;99.90
13049;DHT22;6591;51.446;5.404;2022-10-16T07:09:04;13.90;99.90
13049;DHT22;6591;51.446;5.404;2022-10-16T07:11:33;14.00;99.90
13049;DHT22;6591;51.446;5.404;2022-10-16T07:14:00;14.00;99.90
13049;DHT22;6591;51.446;5.404;2022-10-16T07:16:29;14.00;99.90
13049;DHT22;6591;51.446;5.404;2022-10-16T07:19:00;14.10;99.90
13049;DHT22;6591;51.446;5.404;2022-10-16T07:21:33;14.90;99.90
13049;DHT22;6591;51.446;5.404;2022-10-16T07:24:10;14.20;99.90
13049;DHT22;6591;51.446;5.404;2022-10-16T07:26:40;14.30;99.90
13049;DHT22;6591;51.446;5.404;2022-10-16T07:29:20;15.30;99.90
13049;DHT22;6591;51.446;5.404;2022-10-16T07:31:49;14.50;99.90
13049;DHT22;6591;51.446;5.404;2022-10-16T07:34:18;14.80;99.90
13049;DHT22;6591;51.446;5.404;2022-10-16T07:36:49;14.70;99.90
13049;DHT22;6591;51.446;5.404;2022-10-16T07:39:17;14.90;99.90
13049;DHT22;6591;51.446;5.404;2022-10-16T07:41:44;15.00;99.90
13049;DHT22;6591;51.446;5.404;2022-10-16T07:44:11;15.20;99.90
13049;DHT22;6591;51.446;5.404;2022-10-16T07:46:39;13.30;99.90
13049;DHT22;6591;51.446;5.404;2022-10-16T07:49:06;16.90;99.90
13049;DHT22;6591;51.446;5.404;2022-10-16T07:51:33;16.80;99.90
13049;DHT22;6591;51.446;5.404;2022-10-16T07:54:00;17.20;99.90
13049;DHT22;6591;51.446;5.404;2022-10-16T07:56:27;16.00;99.90
13049;DHT22;6591;51.446;5.404;2022-10-16T07:58:53;17.20;99.90
13049;DHT22;6591;51.446;5.404;2022-10-16T08:01:20;16.30;99.90
13049;DHT22;6591;51.446;5.404;2022-10-16T08:03:49;17.60;99.90
13049;DHT22;6591;51.446;5.404;2022-10-16T08:06:19;16.50;99.90
13049;DHT22;6591;51.446;5.404;2022-10-16T08:08:54;16.70;99.90
13049;DHT22;6591;51.446;5.404;2022-10-16T08:11:22;16.80;99.90
13049;DHT22;6591;51.446;5.404;2022-10-16T08:13:50;16.90;99.90
13049;DHT22;6591;51.446;5.404;2022-10-16T08:16:16;17.00;99.90
13049;DHT22;6591;51.446;5.404;2022-10-16T08:18:44;17.80;99.90
13049;DHT22;6591;51.446;5.404;2022-10-16T08:21:16;18.30;99.90
13049;DHT22;6591;51.446;5.404;2022-10-16T08:23:47;17.40;99.90
13049;DHT22;6591;51.446;5.404;2022-10-16T08:26:24;17.50;99.90
13049;DHT22;6591;51.446;5.404;2022-10-16T08:28:53;17.60;99.90
13049;DHT22;6591;51.446;5.404;2022-10-16T08:31:21;17.80;99.90
13049;DHT22;6591;51.446;5.404;2022-10-16T08:33:48;17.80;99.90
13049;DHT22;6591;51.446;5.404;2022-10-16T08:36:16;18.00;99.90
13049;DHT22;6591;51.446;5.404;2022-10-16T08:38:43;19.20;99.90
13049;DHT22;6591;51.446;5.404;2022-10-16T08:44:27;18.30;99.90
13049;DHT22;6591;51.446;5.404;2022-10-16T08:47:23;18.40;99.90
13049;DHT22;6591;51.446;5.404;2022-10-16T08:50:09;18.50;99.90
13049;DHT22;6591;51.446;5.404;2022-10-16T08:52:43;18.60;99.90
13049;DHT22;6591;51.446;5.404;2022-10-16T08:58:12;18.80;99.90
13049;DHT22;6591;51.446;5.404;2022-10-16T09:00:42;18.90;99.90
13049;DHT22;6591;51.446;5.404;2022-10-16T09:09:44;19.20;99.90
13049;DHT22;6591;51.446;5.404;2022-10-16T09:12:53;19.30;99.90
13049;DHT22;6591;51.446;5.404;2022-10-16T09:15:47;19.50;99.90
13049;DHT22;6591;51.446;5.404;2022-10-16T09:21:44;19.80;99.90
13049;DHT22;6591;51.446;5.404;2022-10-16T09:24:15;20.90;99.90
13049;DHT22;6591;51.446;5.404;2022-10-16T09:26:52;19.90;99.90
13049;DHT22;6591;51.446;5.404;2022-10-16T09:29:21;20.10;99.90
13049;DHT22;6591;51.446;5.404;2022-10-16T09:31:50;20.10;99.90
13049;DHT22;6591;51.446;5.404;2022-10-16T09:34:31;20.30;99.90
13049;DHT22;6591;51.446;5.404;2022-10-16T09:37:04;20.30;99.90
13049;DHT22;6591;51.446;5.404;2022-10-16T09:39:50;21.10;99.90
13049;DHT22;6591;51.446;5.404;2022-10-16T09:42:31;21.70;99.90
13049;DHT22;6591;51.446;5.404;2022-10-16T09:45:02;20.60;99.90
13049;DHT22;6591;51.446;5.404;2022-10-16T09:47:31;20.70;99.90
13049;DHT22;6591;51.446;5.404;2022-10-16T09:50:13;20.80;99.90
13049;DHT22;6591;51.446;5.404;2022-10-16T09:52:48;20.90;99.90
13049;DHT22;6591;51.446;5.404;2022-10-16T09:55:17;21.10;99.90
13049;DHT22;6591;51.446;5.404;2022-10-16T09:57:52;21.20;99.90
13049;DHT22;6591;51.446;5.404;2022-10-16T10:00:21;21.40;99.90
13049;DHT22;6591;51.446;5.404;2022-10-16T10:02:49;22.70;99.90
13049;DHT22;6591;51.446;5.404;2022-10-16T10:05:28;21.70;99.90
13049;DHT22;6591;51.446;5.404;2022-10-16T10:08:01;21.90;99.90
13049;DHT22;6591;51.446;5.404;2022-10-16T10:10:34;22.00;99.90
13049;DHT22;6591;51.446;5.404;2022-10-16T10:13:20;22.80;99.90
13049;DHT22;6591;51.446;5.404;2022-10-16T10:15:51;22.50;99.90
13049;DHT22;6591;51.446;5.404;2022-10-16T10:18:20;22.30;99.90
13049;DHT22;6591;51.446;5.404;2022-10-16T10:21:03;22.50;99.90
13049;DHT22;6591;51.446;5.404;2022-10-16T10:23:32;22.60;99.90
13049;DHT22;6591;51.446;5.404;2022-10-16T10:31:45;22.90;99.90
13049;DHT22;6591;51.446;5.404;2022-10-16T10:34:59;23.00;99.90
13049;DHT22;6591;51.446;5.404;2022-10-16T10:40:47;23.20;99.90
13049;DHT22;6591;51.446;5.404;2022-10-16T10:46:37;23.40;99.90
13049;DHT22;6591;51.446;5.404;2022-10-16T10:49:49;23.50;99.90
13049;DHT22;6591;51.446;5.404;2022-10-16T10:55:39;23.70;99.90
13049;DHT22;6591;51.446;5.404;2022-10-16T11:01:08;24.10;99.90
13049;DHT22;6591;51.446;5.404;2022-10-16T11:07:05;24.50;99.90
13049;DHT22;6591;51.446;5.404;2022-10-16T11:09:43;24.70;99.90
13049;DHT22;6591;51.446;5.404;2022-10-16T11:12:31;24.90;99.90
13049;DHT22;6591;51.446;5.404;2022-10-16T11:15:32;25.20;99.10
13049;DHT22;6591;51.446;5.404;2022-10-16T11:18:16;25.50;98.80
13049;DHT22;6591;51.446;5.404;2022-10-16T11:20:53;25.70;98.90
13049;DHT22;6591;51.446;5.404;2022-10-16T11:23:37;27.60;99.20
13049;DHT22;6591;51.446;5.404;2022-10-16T11:26:16;26.00;97.80
13049;DHT22;6591;51.446;5.404;2022-10-16T11:28:54;26.20;97.50
13049;DHT22;6591;51.446;5.404;2022-10-16T11:31:34;26.20;96.70
13049;DHT22;6591;51.446;5.404;2022-10-16T11:34:25;26.20;96.00
13049;DHT22;6591;51.446;5.404;2022-10-16T11:37:12;26.20;95.70
13049;DHT22;6591;51.446;5.404;2022-10-16T11:39:44;26.10;95.20
13049;DHT22;6591;51.446;5.404;2022-10-16T11:42:18;27.30;96.20
13049;DHT22;6591;51.446;5.404;2022-10-16T11:47:54;25.60;94.10
13049;DHT22;6591;51.446;5.404;2022-10-16T11:50:34;25.50;94.10
13049;DHT22;6591;51.446;5.404;2022-10-16T11:53:38;25.30;94.90
13049;DHT22;6591;51.446;5.404;2022-10-16T11:56:19;25.20;94.00
13049;DHT22;6591;51.446;5.404;2022-10-16T11:59:01;25.10;95.00
13049;DHT22;6591;51.446;5.404;2022-10-16T12:01:41;25.10;94.30
13049;DHT22;6591;51.446;5.404;2022-10-16T12:04:21;25.00;94.80
13049;DHT22;6591;51.446;5.404;2022-10-16T12:09:39;26.40;95.30
13049;DHT22;6591;51.446;5.404;2022-10-16T12:12:27;25.70;95.80
13049;DHT22;6591;51.446;5.404;2022-10-16T12:15:27;25.50;95.00
13049;DHT22;6591;51.446;5.404;2022-10-16T12:18:24;25.80;93.80
13049;DHT22;6591;51.446;5.404;2022-10-16T12:20:58;26.10;94.50
13049;DHT22;6591;51.446;5.404;2022-10-16T12:23:33;26.10;94.00
13049;DHT22;6591;51.446;5.404;2022-10-16T12:26:05;26.20;94.10
13049;DHT22;6591;51.446;5.404;2022-10-16T12:28:33;26.20;93.60
13049;DHT22;6591;51.446;5.404;2022-10-16T12:31:06;26.20;93.20
13049;DHT22;6591;51.446;5.404;2022-10-16T12:33:40;26.20;92.70
13049;DHT22;6591;51.446;5.404;2022-10-16T12:36:16;26.10;92.90
13049;DHT22;6591;51.446;5.404;2022-10-16T12:38:59;26.20;93.00
13049;DHT22;6591;51.446;5.404;2022-10-16T12:41:35;26.00;93.00
13049;DHT22;6591;51.446;5.404;2022-10-16T12:44:24;26.00;92.30
13049;DHT22;6591;51.446;5.404;2022-10-16T12:46:52;26.00;92.50
13049;DHT22;6591;51.446;5.404;2022-10-16T12:49:36;26.00;93.00
13049;DHT22;6591;51.446;5.404;2022-10-16T12:54:57;26.00;91.70
13049;DHT22;6591;51.446;5.404;2022-10-16T12:57:57;26.50;93.10
13049;DHT22;6591;51.446;5.404;2022-10-16T13:00:47;26.20;92.20
13049;DHT22;6591;51.446;5.404;2022-10-16T13:03:36;26.20;93.30
13049;DHT22;6591;51.446;5.404;2022-10-16T13:15:58;26.30;91.50
13049;DHT22;6591;51.446;5.404;2022-10-16T13:21:42;26.20;91.60
13049;DHT22;6591;51.446;5.404;2022-10-16T13:30:17;26.00;92.00
13049;DHT22;6591;51.446;5.404;2022-10-16T13:32:50;25.80;91.40
13049;DHT22;6591;51.446;5.404;2022-10-16T13:35:33;25.80;91.90
13049;DHT22;6591;51.446;5.404;2022-10-16T13:40:51;25.60;92.00
13049;DHT22;6591;51.446;5.404;2022-10-16T13:43:26;25.50;91.70
13049;DHT22;6591;51.446;5.404;2022-10-16T13:46:04;25.50;92.10
13049;DHT22;6591;51.446;5.404;2022-10-16T13:48:42;25.40;91.80
13049;DHT22;6591;51.446;5.404;2022-10-16T13:51:15;25.60;92.30
13049;DHT22;6591;51.446;5.404;2022-10-16T13:53:44;25.20;91.80
13049;DHT22;6591;51.446;5.404;2022-10-16T13:56:20;25.20;92.20
13049;DHT22;6591;51.446;5.404;2022-10-16T13:59:06;25.10;91.70
13049;DHT22;6591;51.446;5.404;2022-10-16T14:01:51;25.00;91.70
13049;DHT22;6591;51.446;5.404;2022-10-16T14:04:21;25.00;92.20
13049;DHT22;6591;51.446;5.404;2022-10-16T14:06:50;24.90;92.30
13049;DHT22;6591;51.446;5.404;2022-10-16T14:09:25;24.80;92.30
13049;DHT22;6591;51.446;5.404;2022-10-16T14:12:01;24.80;92.20
13049;DHT22;6591;51.446;5.404;2022-10-16T14:14:48;24.70;92.40
13049;DHT22;6591;51.446;5.404;2022-10-16T14:17:24;24.60;92.10
13049;DHT22;6591;51.446;5.404;2022-10-16T14:19:56;24.60;92.40
13049;DHT22;6591;51.446;5.404;2022-10-16T14:22:38;24.40;92.40
13049;DHT22;6591;51.446;5.404;2022-10-16T14:30:58;24.20;92.30
13049;DHT22;6591;51.446;5.404;2022-10-16T14:33:33;24.50;92.50
13049;DHT22;6591;51.446;5.404;2022-10-16T14:38:47;24.00;92.70
13049;DHT22;6591;51.446;5.404;2022-10-16T14:41:24;24.00;93.00
13049;DHT22;6591;51.446;5.404;2022-10-16T14:43:54;24.00;93.20
13049;DHT22;6591;51.446;5.404;2022-10-16T14:46:35;25.10;93.70
13049;DHT22;6591;51.446;5.404;2022-10-16T14:51:38;24.10;93.50
13049;DHT22;6591;51.446;5.404;2022-10-16T14:54:16;24.20;93.70
13049;DHT22;6591;51.446;5.404;2022-10-16T14:56:51;24.30;93.50
13049;DHT22;6591;51.446;5.404;2022-10-16T14:59:37;24.40;93.70
13049;DHT22;6591;51.446;5.404;2022-10-16T15:02:40;24.50;93.70
13049;DHT22;6591;51.446;5.404;2022-10-16T15:05:16;24.60;93.50
13049;DHT22;6591;51.446;5.404;2022-10-16T15:07:46;24.70;93.10
13049;DHT22;6591;51.446;5.404;2022-10-16T15:10:13;24.70;93.20
13049;DHT22;6591;51.446;5.404;2022-10-16T15:12:42;24.70;92.70
13049;DHT22;6591;51.446;5.404;2022-10-16T15:15:33;24.60;92.70
13049;DHT22;6591;51.446;5.404;2022-10-16T15:18:04;24.50;92.20
13049;DHT22;6591;51.446;5.404;2022-10-16T15:20:36;24.40;92.60
13049;DHT22;6591;51.446;5.404;2022-10-16T15:23:14;24.30;92.50
13049;DHT22;6591;51.446;5.404;2022-10-16T15:25:45;24.40;92.60
13049;DHT22;6591;51.446;5.404;2022-10-16T15:28:15;23.90;92.70
13049;DHT22;6591;51.446;5.404;2022-10-16T15:30:43;23.80;92.90
13049;DHT22;6591;51.446;5.404;2022-10-16T15:33:22;25.40;93.40
13049;DHT22;6591;51.446;5.404;2022-10-16T15:36:02;23.50;92.90
13049;DHT22;6591;51.446;5.404;2022-10-16T15:38:33;23.30;93.10
13049;DHT22;6591;51.446;5.404;2022-10-16T15:41:00;24.00;93.50
13049;DHT22;6591;51.446;5.404;2022-10-16T15:43:27;23.00;93.40
13049;DHT22;6591;51.446;5.404;2022-10-16T15:46:06;22.80;93.60
13049;DHT22;6591;51.446;5.404;2022-10-16T15:48:38;22.70;93.60
13049;DHT22;6591;51.446;5.404;2022-10-16T15:51:07;22.60;93.70
13049;DHT22;6591;51.446;5.404;2022-10-16T15:53:35;22.40;93.90
13049;DHT22;6591;51.446;5.404;2022-10-16T15:56:03;22.30;94.00
13049;DHT22;6591;51.446;5.404;2022-10-16T15:58:31;22.20;94.20
13049;DHT22;6591;51.446;5.404;2022-10-16T16:00:59;22.10;94.30
13049;DHT22;6591;51.446;5.404;2022-10-16T16:03:30;21.90;94.50
13049;DHT22;6591;51.446;5.404;2022-10-16T16:06:03;21.80;94.70
13049;DHT22;6591;51.446;5.404;2022-10-16T16:08:32;21.80;94.70
13049;DHT22;6591;51.446;5.404;2022-10-16T16:11:02;21.60;94.80
13049;DHT22;6591;51.446;5.404;2022-10-16T16:13:41;21.50;95.00
13049;DHT22;6591;51.446;5.404;2022-10-16T16:16:11;21.40;95.10
13049;DHT22;6591;51.446;5.404;2022-10-16T16:18:40;21.40;95.30
13049;DHT22;6591;51.446;5.404;2022-10-16T16:21:09;21.90;95.50
13049;DHT22;6591;51.446;5.404;2022-10-16T16:23:38;23.10;96.00
13049;DHT22;6591;51.446;5.404;2022-10-16T16:26:26;23.10;96.10
13049;DHT22;6591;51.446;5.404;2022-10-16T16:28:59;20.90;95.80
13049;DHT22;6591;51.446;5.404;2022-10-16T16:31:28;20.80;95.70
13049;DHT22;6591;51.446;5.404;2022-10-16T16:33:57;20.70;95.80
13049;DHT22;6591;51.446;5.404;2022-10-16T16:36:25;20.60;96.00
13049;DHT22;6591;51.446;5.404;2022-10-16T16:38:52;20.50;96.10
13049;DHT22;6591;51.446;5.404;2022-10-16T16:41:22;22.30;96.80
13049;DHT22;6591;51.446;5.404;2022-10-16T16:43:53;22.30;97.10
13049;DHT22;6591;51.446;5.404;2022-10-16T16:46:21;20.80;96.90
13049;DHT22;6591;51.446;5.404;2022-10-16T16:48:48;20.40;96.90
13049;DHT22;6591;51.446;5.404;2022-10-16T16:51:21;20.20;97.00
13049;DHT22;6591;51.446;5.404;2022-10-16T16:53:52;20.20;97.10
13049;DHT22;6591;51.446;5.404;2022-10-16T16:56:21;20.80;97.70
13049;DHT22;6591;51.446;5.404;2022-10-16T16:58:50;20.10;97.50
13049;DHT22;6591;51.446;5.404;2022-10-16T17:01:19;20.90;97.90
13049;DHT22;6591;51.446;5.404;2022-10-16T17:03:49;20.00;97.70
13049;DHT22;6591;51.446;5.404;2022-10-16T17:06:23;19.90;97.70
13049;DHT22;6591;51.446;5.404;2022-10-16T17:08:52;19.90;97.90
13049;DHT22;6591;51.446;5.404;2022-10-16T17:11:23;19.80;97.80
13049;DHT22;6591;51.446;5.404;2022-10-16T17:13:53;19.80;98.00
13049;DHT22;6591;51.446;5.404;2022-10-16T17:16:34;21.40;98.50
13049;DHT22;6591;51.446;5.404;2022-10-16T17:19:05;19.70;98.30
13049;DHT22;6591;51.446;5.404;2022-10-16T17:21:34;21.10;98.60
13049;DHT22;6591;51.446;5.404;2022-10-16T17:24:02;19.60;98.20
13049;DHT22;6591;51.446;5.404;2022-10-16T17:26:30;19.60;98.30
13049;DHT22;6591;51.446;5.404;2022-10-16T17:29:00;19.50;98.40
13049;DHT22;6591;51.446;5.404;2022-10-16T17:31:33;19.50;98.50
13049;DHT22;6591;51.446;5.404;2022-10-16T17:34:06;19.40;98.70
13049;DHT22;6591;51.446;5.404;2022-10-16T17:36:36;19.60;98.80
13049;DHT22;6591;51.446;5.404;2022-10-16T17:39:07;19.60;98.80
13049;DHT22;6591;51.446;5.404;2022-10-16T17:41:35;19.30;98.70
13049;DHT22;6591;51.446;5.404;2022-10-16T17:44:04;19.30;98.80
13049;DHT22;6591;51.446;5.404;2022-10-16T17:46:34;19.20;99.20
13049;DHT22;6591;51.446;5.404;2022-10-16T17:49:08;19.20;98.90
13049;DHT22;6591;51.446;5.404;2022-10-16T17:51:36;19.20;99.10